Portada
METAR-TAF:

METAR-TAF

Aeroports :

Aeroport de Milà-Malpensa

Milà, Itàlia

latitud: 45-37N, longitud: 008-44E, altitud: 234 m

Observació

L'informe es va fer fa 27 minuts, a les 02:50 UTC
Vent 7 kt del Nord
Temperatura -2°C
Humitat 59%
Pressió 1017 hPa
Visibilitat 10 km o més
sense núvols per sota de 1500 mi sense presència de cumulonimbus.

METAR: LIMC 270250Z 01007KT CAVOK M02/M09 Q1017 NOSIG

Hora: 04:17 (03:17 UTC)

Pronòstic

L'informe es va fer fa 4 hores i 17 minuts, a les 23:00 UTC
Pronòstic vàlid del 27 a les 00 UTC al 28 a les 06 UTC
Vent 5 kt del Nord
Visibilitat 10 km o més
sense núvols per sota de 1500 mi sense presència de cumulonimbus.

TAF: LIMC 262300Z 2700/2806 36005KT CAVOK

Observacions i pronòstics meteorològics de més de 4000 aeroports (METAR i TAF).

Les estacions disponibles són els punts grocs i vermells al mapa.

Posi el ratolí al punt desitjat per veure el nom de l'estació.

Feu clic per veure les observacions i els pronòstics meteorològics.

Per canviar el mapa: feu clic els botons verds amb una creu de color negre per apropar; al botó verd amb un guió per allunyar la imatge; o en les fletxes verdes per a mapes adjacents.


METAR-TAF: